Time;durP1;ratioP1;P1;durP2;ratioP2;P2;SDS_P1;SDS_P2;PMS_P1;PMS_P2;Temp;Humidity;BMP_temperature;BMP_pressure;BME280_temperature;BME280_humidity;BME280_pressure;Samples;Min_cycle;Max_cycle;Signal;HPM_P1;HPM_P2
2022/02/17 00:00:13;;;;;;;0.90;0.80;;;13.40;97.30;;;;;;5053139;28;20497;-78
2022/02/17 00:02:43;;;;;;;1.00;0.90;;;13.50;97.30;;;;;;5053007;28;20195;-79
2022/02/17 00:05:10;;;;;;;1.13;0.97;;;13.50;97.30;;;;;;5052620;28;20425;-77
2022/02/17 00:07:36;;;;;;;0.90;0.80;;;13.50;97.30;;;;;;5053542;28;20431;-77
2022/02/17 00:10:04;;;;;;;0.83;0.77;;;13.50;97.30;;;;;;5053360;28;20500;-77
2022/02/17 00:12:30;;;;;;;0.77;0.73;;;13.60;97.30;;;;;;5053027;28;20909;-80
2022/02/17 00:14:57;;;;;;;0.70;0.70;;;13.60;97.30;;;;;;5053089;28;20494;-78
2022/02/17 00:17:22;;;;;;;0.90;0.80;;;13.60;97.30;;;;;;5052779;28;20421;-77
2022/02/17 00:19:48;;;;;;;0.90;0.80;;;13.60;97.30;;;;;;5052818;28;20418;-78
2022/02/17 00:22:13;;;;;;;0.90;0.80;;;13.70;97.30;;;;;;5052410;28;20195;-78
2022/02/17 00:24:39;;;;;;;0.70;0.70;;;13.70;97.30;;;;;;5052501;28;20267;-78
2022/02/17 00:27:06;;;;;;;0.90;0.80;;;13.80;97.30;;;;;;5052615;28;20636;-77
2022/02/17 00:29:31;;;;;;;1.00;0.90;;;13.90;97.30;;;;;;5052272;28;20471;-78
2022/02/17 00:31:57;;;;;;;0.90;0.80;;;13.90;97.30;;;;;;5052050;28;20857;-76
2022/02/17 00:34:23;;;;;;;1.27;0.80;;;13.90;97.30;;;;;;5070168;28;20191;-79
2022/02/17 00:36:49;;;;;;;0.70;0.70;;;14.00;97.30;;;;;;5052495;28;20266;-77
2022/02/17 00:39:14;;;;;;;0.90;0.80;;;14.00;97.30;;;;;;5052824;28;20443;-78
2022/02/17 00:41:40;;;;;;;1.43;1.00;;;14.10;97.30;;;;;;5052639;28;20175;-78
2022/02/17 00:44:05;;;;;;;0.93;0.83;;;14.10;97.30;;;;;;5052680;28;20565;-78
2022/02/17 00:46:31;;;;;;;1.27;0.90;;;14.20;97.30;;;;;;5052252;28;20190;-79
2022/02/17 00:48:57;;;;;;;1.10;0.80;;;14.20;97.30;;;;;;5052195;28;20182;-79
2022/02/17 00:51:23;;;;;;;0.90;0.80;;;14.30;97.30;;;;;;5051569;28;20867;-77
2022/02/17 00:53:49;;;;;;;0.73;0.70;;;14.30;97.30;;;;;;5051728;28;20213;-78
2022/02/17 00:56:14;;;;;;;2.27;0.83;;;14.30;97.30;;;;;;5051636;28;20218;-78
2022/02/17 00:58:40;;;;;;;0.70;0.70;;;14.30;97.30;;;;;;5051814;28;20175;-78
2022/02/17 01:01:05;;;;;;;0.70;0.60;;;14.30;97.30;;;;;;5051912;28;20179;-77
2022/02/17 01:03:31;;;;;;;1.33;0.90;;;14.40;97.30;;;;;;5069974;28;20199;-77
2022/02/17 01:05:56;;;;;;;0.80;0.80;;;14.50;97.30;;;;;;5051696;28;20206;-78
2022/02/17 01:08:22;;;;;;;5.70;1.93;;;14.60;97.30;;;;;;5051512;28;20644;-78
2022/02/17 01:10:48;;;;;;;0.70;0.70;;;14.60;97.30;;;;;;5051723;28;20198;-76
2022/02/17 01:13:13;;;;;;;1.30;0.90;;;14.70;97.30;;;;;;5069767;28;20195;-79
2022/02/17 01:15:39;;;;;;;0.90;0.80;;;14.80;97.30;;;;;;5069672;28;20219;-77
2022/02/17 01:18:04;;;;;;;0.83;0.77;;;14.70;97.30;;;;;;5051415;28;20175;-78
2022/02/17 01:20:30;;;;;;;1.20;0.90;;;14.70;97.30;;;;;;5069615;28;20547;-78
2022/02/17 01:22:56;;;;;;;61.97;2.73;;;14.70;97.30;;;;;;5051402;28;20672;-76
2022/02/17 01:25:21;;;;;;;0.70;0.70;;;14.80;97.30;;;;;;5069633;28;20179;-76
2022/02/17 01:27:47;;;;;;;0.83;0.77;;;14.80;97.30;;;;;;5069393;28;20234;-77
2022/02/17 01:30:12;;;;;;;1.50;0.80;;;14.70;97.30;;;;;;5051833;28;20747;-76
2022/02/17 01:32:38;;;;;;;1.90;1.17;;;14.70;97.30;;;;;;5069737;28;20714;-79
2022/02/17 01:35:04;;;;;;;1.47;0.80;;;14.60;97.30;;;;;;5051942;28;20264;-77
2022/02/17 01:37:30;;;;;;;0.70;0.70;;;14.60;97.30;;;;;;5051698;28;20175;-77
2022/02/17 01:39:56;;;;;;;0.70;0.70;;;14.60;97.30;;;;;;5069573;28;20406;-76
2022/02/17 01:42:21;;;;;;;0.90;0.80;;;14.50;97.30;;;;;;5051246;28;20560;-77
2022/02/17 01:44:48;;;;;;;1.00;0.90;;;14.50;97.30;;;;;;5051569;28;20563;-75
2022/02/17 01:47:15;;;;;;;0.80;0.73;;;14.40;97.30;;;;;;5051392;28;20179;-75
2022/02/17 01:49:42;;;;;;;0.93;0.83;;;14.40;97.30;;;;;;5051241;28;20417;-78
2022/02/17 01:52:09;;;;;;;0.90;0.80;;;14.40;97.30;;;;;;5053667;28;20753;-77
2022/02/17 01:54:36;;;;;;;1.43;0.80;;;14.50;97.30;;;;;;5055203;28;20732;-77
2022/02/17 01:57:06;;;;;;;1.00;0.90;;;14.50;97.30;;;;;;5054866;28;20508;-76
2022/02/17 01:59:32;;;;;;;0.90;0.90;;;14.50;97.30;;;;;;5055509;28;20417;-77
2022/02/17 02:01:58;;;;;;;0.90;0.80;;;14.60;97.30;;;;;;5055181;28;20487;-79
2022/02/17 02:04:23;;;;;;;0.90;0.90;;;14.70;97.30;;;;;;5055151;28;20334;-78
2022/02/17 02:06:49;;;;;;;2.50;0.83;;;14.70;97.30;;;;;;5073733;28;20218;-79
2022/02/17 02:09:17;;;;;;;0.87;0.80;;;14.70;97.30;;;;;;5072681;28;20179;-78
2022/02/17 02:11:44;;;;;;;0.80;0.80;;;14.70;97.30;;;;;;5054864;28;20178;-79
2022/02/17 02:14:15;;;;;;;1.00;0.90;;;14.70;97.30;;;;;;5072858;28;20453;-79
2022/02/17 02:16:41;;;;;;;1.00;0.90;;;14.80;97.30;;;;;;5073146;28;20409;-79
2022/02/17 02:19:06;;;;;;;0.80;0.80;;;14.70;97.30;;;;;;5055314;28;20421;-77
2022/02/17 02:21:32;;;;;;;0.93;0.83;;;14.60;97.30;;;;;;5055301;28;20175;-78
2022/02/17 02:23:57;;;;;;;0.70;0.70;;;14.50;97.30;;;;;;5054730;28;20175;-82
2022/02/17 02:26:23;;;;;;;0.80;0.80;;;14.50;97.30;;;;;;5054896;28;20221;-78
2022/02/17 02:28:49;;;;;;;1.10;1.00;;;14.50;97.30;;;;;;5055046;28;20175;-79
2022/02/17 02:31:15;;;;;;;1.00;0.90;;;14.40;97.30;;;;;;5055285;28;20768;-78
2022/02/17 02:33:42;;;;;;;0.90;0.87;;;14.40;97.30;;;;;;5054533;28;20562;-79
2022/02/17 02:36:08;;;;;;;1.00;0.90;;;14.30;97.30;;;;;;5055112;28;20671;-78
2022/02/17 02:38:34;;;;;;;1.10;1.00;;;14.30;97.30;;;;;;5054746;28;20445;-78
2022/02/17 02:40:59;;;;;;;1.00;1.00;;;14.20;97.30;;;;;;5054321;28;20179;-79
2022/02/17 02:43:25;;;;;;;1.87;0.93;;;14.20;97.30;;;;;;5054200;28;20218;-78
2022/02/17 02:45:50;;;;;;;2.73;1.20;;;14.10;97.30;;;;;;5054563;28;20850;-78
2022/02/17 02:48:16;;;;;;;1.00;0.90;;;14.00;96.90;;;;;;5055054;28;20186;-79
2022/02/17 02:50:42;;;;;;;3.73;2.07;;;13.70;96.60;;;;;;5054775;28;20178;-78
2022/02/17 02:53:08;;;;;;;1.07;0.90;;;13.30;96.00;;;;;;5054848;28;20218;-79
2022/02/17 02:55:34;;;;;;;1.63;1.20;;;13.00;95.50;;;;;;5054788;28;20757;-78
2022/02/17 02:57:59;;;;;;;1.17;1.00;;;12.70;96.10;;;;;;5054362;28;20544;-80
2022/02/17 03:00:26;;;;;;;1.90;1.00;;;12.50;96.70;;;;;;5054344;28;20206;-77
2022/02/17 03:02:51;;;;;;;1.10;1.10;;;12.30;97.10;;;;;;5053609;28;20299;-79
2022/02/17 03:05:17;;;;;;;3.43;1.30;;;12.20;97.30;;;;;;5054127;28;20869;-78
2022/02/17 03:07:43;;;;;;;1.57;1.30;;;12.00;97.30;;;;;;5053362;28;20217;-78
2022/02/17 03:10:09;;;;;;;2.80;1.40;;;11.80;97.30;;;;;;5053837;28;20183;-78
2022/02/17 03:12:35;;;;;;;2.30;1.20;;;11.50;97.30;;;;;;5053559;28;20206;-77
2022/02/17 03:15:01;;;;;;;1.40;1.10;;;11.10;97.30;;;;;;5053487;28;20457;-79
2022/02/17 03:17:26;;;;;;;1.97;1.20;;;10.90;97.30;;;;;;5053968;28;20841;-78
2022/02/17 03:19:52;;;;;;;1.53;1.53;;;10.70;97.30;;;;;;5071931;28;20167;-78
2022/02/17 03:22:18;;;;;;;2.30;1.27;;;10.50;97.30;;;;;;5054367;28;20211;-79
2022/02/17 03:24:43;;;;;;;2.20;1.23;;;10.40;97.30;;;;;;5053866;28;20179;-75
2022/02/17 03:27:09;;;;;;;3.90;1.50;;;10.30;97.30;;;;;;5053788;28;20523;-77
2022/02/17 03:29:35;;;;;;;2.93;1.93;;;10.20;97.30;;;;;;5072058;28;20212;-77
2022/02/17 03:32:02;;;;;;;37.57;3.63;;;10.10;97.30;;;;;;5053455;28;20276;-77
2022/02/17 03:34:27;;;;;;;1.20;1.10;;;10.00;97.30;;;;;;5053364;28;20345;-79
2022/02/17 03:36:53;;;;;;;1.23;1.20;;;9.80;97.30;;;;;;5070339;28;20406;-77
2022/02/17 03:39:19;;;;;;;1.10;1.00;;;9.70;97.30;;;;;;5069646;28;20698;-78
2022/02/17 03:41:46;;;;;;;1.73;1.10;;;9.50;97.30;;;;;;5070949;28;20422;-77
2022/02/17 03:44:13;;;;;;;1.07;1.03;;;9.40;97.30;;;;;;5052781;28;20199;-77
2022/02/17 03:46:38;;;;;;;1.50;1.10;;;9.40;97.30;;;;;;5071195;28;20871;-78
2022/02/17 03:49:04;;;;;;;1.40;1.13;;;9.40;97.30;;;;;;5071175;28;20516;-77
2022/02/17 03:51:29;;;;;;;1.67;1.30;;;9.40;97.30;;;;;;5071372;28;20187;-78
2022/02/17 03:53:55;;;;;;;3.60;1.30;;;9.40;97.30;;;;;;5070876;28;20250;-77
2022/02/17 03:56:20;;;;;;;4.70;1.30;;;9.40;97.30;;;;;;5070715;28;20233;-77
2022/02/17 03:59:01;;;;;;;2.30;1.20;;;9.40;97.30;;;;;;5052972;28;20206;-77
2022/02/17 04:01:28;;;;;;;3.03;1.10;;;9.40;97.30;;;;;;5052797;28;20225;-78
2022/02/17 04:03:53;;;;;;;3.37;1.00;;;9.30;97.30;;;;;;5052506;28;20709;-77
2022/02/17 04:06:19;;;;;;;1.00;1.00;;;9.30;97.30;;;;;;5053141;28;20417;-78
2022/02/17 04:08:44;;;;;;;1.93;1.03;;;9.20;97.30;;;;;;5070836;28;20179;-77
2022/02/17 04:11:10;;;;;;;1.37;1.10;;;9.20;97.30;;;;;;5053668;28;20495;-77
2022/02/17 04:13:36;;;;;;;3.33;1.00;;;9.10;97.30;;;;;;5053539;28;20195;-78
2022/02/17 04:16:01;;;;;;;3.43;1.00;;;9.10;97.30;;;;;;5052810;28;20623;-79
2022/02/17 04:18:27;;;;;;;1.40;1.00;;;9.00;97.30;;;;;;5072388;28;20546;-79
2022/02/17 04:20:54;;;;;;;2.40;1.00;;;8.90;97.30;;;;;;5053055;28;20183;-77
2022/02/17 04:23:20;;;;;;;3.50;0.90;;;8.90;97.30;;;;;;5054717;28;20252;-78
2022/02/17 04:25:46;;;;;;;26.13;2.37;;;8.70;97.30;;;;;;5054879;28;20413;-77
2022/02/17 04:28:11;;;;;;;1.53;1.43;;;8.70;97.30;;;;;;5055295;28;20559;-78
2022/02/17 04:30:37;;;;;;;1.30;1.20;;;8.70;97.30;;;;;;5054162;28;20181;-77
2022/02/17 04:33:03;;;;;;;2.50;1.00;;;8.60;97.30;;;;;;5053271;28;20203;-77
2022/02/17 04:35:29;;;;;;;3.20;0.97;;;8.50;97.30;;;;;;5052780;28;20211;-78
2022/02/17 04:37:55;;;;;;;2.63;1.20;;;8.50;97.30;;;;;;5052643;28;20784;-77
2022/02/17 04:42:17;;;;;;;2.20;1.03;;;8.40;97.30;;;;;;5051956;28;20194;-77
2022/02/17 04:43:06;;;;;;;1.27;1.13;;;8.40;97.30;;;;;;5070208;28;20591;-79
2022/02/17 04:45:32;;;;;;;2.40;1.37;;;8.30;97.30;;;;;;5052038;28;20435;-77
2022/02/17 04:47:58;;;;;;;1.67;1.13;;;8.30;97.30;;;;;;5051989;28;20221;-78
2022/02/17 04:50:24;;;;;;;1.50;1.30;;;8.40;97.30;;;;;;5053826;28;20203;-77
2022/02/17 04:52:50;;;;;;;1.93;1.00;;;8.40;97.30;;;;;;5054509;28;20491;-78
2022/02/17 04:55:16;;;;;;;1.50;1.00;;;8.40;97.30;;;;;;5053479;28;20457;-77
2022/02/17 04:57:41;;;;;;;3.67;1.40;;;8.40;97.30;;;;;;5071690;28;20222;-77
2022/02/17 05:00:08;;;;;;;3.50;1.50;;;8.40;97.30;;;;;;5053458;28;20632;-77
2022/02/17 05:02:33;;;;;;;1.70;1.07;;;8.40;97.30;;;;;;5053129;28;20195;-78
2022/02/17 05:04:59;;;;;;;4.77;2.47;;;8.40;97.30;;;;;;5070700;28;20793;-77
2022/02/17 05:07:24;;;;;;;3.33;1.43;;;8.40;97.30;;;;;;5052567;28;20265;-77
2022/02/17 05:09:50;;;;;;;4.23;1.00;;;8.40;97.30;;;;;;5052730;28;20620;-79
2022/02/17 05:12:15;;;;;;;2.97;1.17;;;8.30;97.30;;;;;;5052990;28;20209;-77
2022/02/17 05:14:41;;;;;;;2.70;1.10;;;8.20;97.30;;;;;;5052618;28;20214;-77
2022/02/17 05:17:07;;;;;;;5.93;1.00;;;8.10;97.30;;;;;;5052103;28;20235;-78
2022/02/17 05:19:32;;;;;;;4.90;1.30;;;8.00;97.30;;;;;;5052856;28;20205;-77
2022/02/17 05:21:58;;;;;;;1.70;1.13;;;7.90;97.30;;;;;;5052732;28;20203;-78
2022/02/17 05:24:23;;;;;;;1.60;1.10;;;7.90;97.30;;;;;;5053021;28;20183;-77
2022/02/17 05:26:49;;;;;;;1.70;1.10;;;7.90;97.30;;;;;;5052513;28;20182;-77
2022/02/17 05:29:14;;;;;;;3.60;1.30;;;7.90;97.30;;;;;;5053477;28;20190;-77
2022/02/17 05:31:40;;;;;;;2.37;1.30;;;7.90;97.30;;;;;;5052376;28;20272;-77
2022/02/17 05:34:05;;;;;;;2.10;1.30;;;7.90;97.30;;;;;;5051775;28;20190;-78
2022/02/17 05:36:31;;;;;;;3.13;1.20;;;7.90;97.30;;;;;;5069637;28;20733;-76
2022/02/17 05:38:57;;;;;;;1.20;1.10;;;7.90;97.30;;;;;;5051363;28;20782;-77
2022/02/17 05:41:22;;;;;;;2.50;1.40;;;7.90;97.30;;;;;;5051179;28;20202;-77
2022/02/17 05:43:48;;;;;;;1.40;1.27;;;7.90;97.30;;;;;;5051206;28;20446;-76
2022/02/17 05:46:13;;;;;;;1.10;0.97;;;7.90;97.30;;;;;;5051350;28;20230;-76
2022/02/17 05:48:39;;;;;;;2.63;1.07;;;8.00;97.30;;;;;;5069764;28;20184;-77
2022/02/17 05:51:05;;;;;;;2.47;1.13;;;8.10;97.30;;;;;;5051371;28;20210;-77
2022/02/17 05:53:30;;;;;;;1.10;1.00;;;8.10;97.30;;;;;;5051373;28;20720;-76
2022/02/17 05:55:56;;;;;;;4.60;1.40;;;8.10;97.30;;;;;;5068744;28;20230;-76
2022/02/17 05:58:21;;;;;;;2.50;1.00;;;8.10;97.30;;;;;;5057116;28;20215;-77
2022/02/17 06:00:47;;;;;;;1.53;1.27;;;8.10;97.30;;;;;;5052087;28;20538;-77
2022/02/17 06:03:13;;;;;;;2.60;1.20;;;8.10;97.30;;;;;;5051461;28;20692;-76
2022/02/17 06:05:38;;;;;;;4.00;1.40;;;8.10;97.30;;;;;;5069029;28;20628;-77
2022/02/17 06:08:05;;;;;;;1.23;1.20;;;8.20;97.30;;;;;;5051271;28;20209;-77
2022/02/17 06:10:31;;;;;;;4.30;1.13;;;8.40;97.30;;;;;;5051292;28;20193;-76
2022/02/17 06:12:57;;;;;;;1.20;1.10;;;8.40;97.30;;;;;;5051669;28;20528;-78
2022/02/17 06:15:22;;;;;;;6.63;1.70;;;8.30;97.30;;;;;;5051619;28;20500;-77
2022/02/17 06:17:48;;;;;;;7.47;1.27;;;8.20;97.30;;;;;;5051972;28;20183;-77
2022/02/17 06:20:13;;;;;;;1.80;1.27;;;8.00;97.30;;;;;;5051272;28;20182;-77
2022/02/17 06:22:51;;;;;;;1.63;1.20;;;7.90;97.30;;;;;;5051452;28;20237;-77
2022/02/17 06:25:19;;;;;;;4.07;1.20;;;7.70;97.30;;;;;;5069692;28;20179;-77
2022/02/17 06:27:46;;;;;;;5.80;1.30;;;7.70;97.30;;;;;;5051699;28;20564;-77
2022/02/17 06:30:12;;;;;;;1.80;1.00;;;7.60;97.30;;;;;;5051280;28;20511;-79
2022/02/17 06:33:04;;;;;;;4.10;1.50;;;7.60;97.30;;;;;;5052290;28;20441;-78
2022/02/17 06:35:32;;;;;;;3.70;1.30;;;7.50;97.30;;;;;;5064671;28;20983;-77
2022/02/17 06:37:59;;;;;;;4.90;1.50;;;7.40;97.30;;;;;;5052464;28;20502;-78
2022/02/17 06:40:26;;;;;;;3.43;1.60;;;7.40;97.30;;;;;;5054581;28;20939;-77
2022/02/17 06:42:52;;;;;;;3.30;1.10;;;7.40;97.30;;;;;;5072652;28;20715;-78
2022/02/17 06:45:18;;;;;;;2.10;1.03;;;7.50;97.30;;;;;;5054744;28;20409;-76
2022/02/17 06:47:44;;;;;;;1.40;1.33;;;7.50;97.30;;;;;;5054584;28;20183;-77
2022/02/17 06:50:10;;;;;;;2.80;1.30;;;7.70;97.30;;;;;;5055044;28;20210;-77
2022/02/17 06:52:36;;;;;;;4.20;1.40;;;7.80;97.30;;;;;;5072694;28;20440;-77
2022/02/17 06:55:02;;;;;;;5.23;1.53;;;7.90;97.30;;;;;;5054616;28;20584;-77
2022/02/17 06:57:28;;;;;;;2.50;1.10;;;7.90;97.30;;;;;;5072602;28;20339;-77
2022/02/17 06:59:54;;;;;;;0.90;0.83;;;7.90;97.30;;;;;;5054492;28;21010;-77
2022/02/17 07:02:27;;;;;;;2.97;2.70;;;7.90;97.30;;;;;;5054342;28;20210;-78
2022/02/17 07:04:53;;;;;;;1.90;1.10;;;7.80;97.30;;;;;;5054256;28;20846;-77
2022/02/17 07:07:20;;;;;;;1.20;1.00;;;7.70;97.30;;;;;;5072514;28;20515;-77
2022/02/17 07:09:46;;;;;;;10.93;1.80;;;7.80;97.30;;;;;;5054215;28;20426;-78
2022/02/17 07:12:13;;;;;;;3.00;1.23;;;7.80;97.30;;;;;;5053627;28;20473;-78
2022/02/17 07:14:38;;;;;;;3.03;1.30;;;7.80;97.30;;;;;;5054237;28;20469;-78
2022/02/17 07:17:05;;;;;;;5.13;1.10;;;7.90;97.30;;;;;;5054136;28;20422;-77
2022/02/17 07:19:31;;;;;;;3.70;1.50;;;7.90;97.30;;;;;;5071685;28;20172;-78
2022/02/17 07:21:56;;;;;;;1.63;1.37;;;7.90;97.30;;;;;;5053778;28;20437;-78
2022/02/17 07:24:22;;;;;;;1.07;0.97;;;8.00;97.30;;;;;;5053608;28;20206;-78
2022/02/17 07:26:48;;;;;;;1.47;1.43;;;8.00;97.30;;;;;;5072141;28;20237;-78
2022/02/17 07:29:15;;;;;;;1.40;1.23;;;8.00;97.30;;;;;;5052807;28;20475;-77
2022/02/17 07:31:41;;;;;;;3.47;1.20;;;8.10;97.30;;;;;;5051758;28;21029;-76
2022/02/17 07:34:07;;;;;;;3.73;1.00;;;8.00;97.30;;;;;;5053960;28;20515;-78
2022/02/17 07:36:33;;;;;;;3.93;1.23;;;8.10;97.30;;;;;;5054242;28;20266;-77
2022/02/17 07:38:59;;;;;;;1.97;1.10;;;8.30;97.30;;;;;;5071770;28;20414;-76
2022/02/17 07:41:25;;;;;;;4.67;1.20;;;8.40;97.30;;;;;;5053323;28;20413;-76
2022/02/17 07:43:50;;;;;;;1.00;1.00;;;8.40;97.30;;;;;;5053547;28;20205;-76
2022/02/17 07:46:16;;;;;;;1.47;1.10;;;8.30;97.30;;;;;;5053827;28;20175;-77
2022/02/17 07:48:42;;;;;;;5.10;1.10;;;8.30;97.30;;;;;;5054019;28;20700;-76
2022/02/17 07:51:08;;;;;;;0.90;0.90;;;8.20;97.30;;;;;;5053504;28;20508;-78
2022/02/17 07:53:34;;;;;;;1.63;1.17;;;8.20;97.30;;;;;;5053513;28;20195;-75
2022/02/17 07:56:00;;;;;;;2.50;1.20;;;8.10;97.30;;;;;;5053107;28;20210;-77
2022/02/17 07:58:27;;;;;;;1.53;1.30;;;8.00;97.30;;;;;;5052711;28;20647;-76
2022/02/17 08:00:52;;;;;;;2.30;1.53;;;7.90;97.30;;;;;;5053067;28;20488;-76
2022/02/17 08:03:19;;;;;;;1.50;0.90;;;7.90;97.30;;;;;;5053292;28;20528;-78
2022/02/17 08:05:45;;;;;;;2.63;1.17;;;7.80;97.30;;;;;;5053254;28;20182;-76
2022/02/17 08:08:12;;;;;;;6.37;1.20;;;7.80;97.30;;;;;;5071075;28;20418;-77
2022/02/17 08:10:38;;;;;;;2.40;1.00;;;7.80;97.30;;;;;;5053297;28;20879;-76
2022/02/17 08:13:05;;;;;;;3.50;1.37;;;7.70;97.30;;;;;;5052682;28;20805;-76
2022/02/17 08:15:31;;;;;;;3.57;1.60;;;7.60;97.30;;;;;;5052990;28;20546;-77
2022/02/17 08:17:57;;;;;;;3.00;1.00;;;7.50;97.30;;;;;;5052747;28;20433;-78
2022/02/17 08:20:22;;;;;;;2.07;1.90;;;7.50;97.30;;;;;;5052632;28;20431;-77
2022/02/17 08:22:56;;;;;;;5.37;1.87;;;7.50;97.30;;;;;;5070406;28;20429;-77
2022/02/17 08:25:23;;;;;;;3.27;1.33;;;7.50;97.30;;;;;;5070731;28;20183;-76
2022/02/17 08:27:50;;;;;;;3.83;2.20;;;7.50;97.30;;;;;;5052867;28;20830;-76
2022/02/17 08:30:17;;;;;;;8.23;1.47;;;7.60;97.30;;;;;;5052737;28;20418;-76
2022/02/17 08:32:42;;;;;;;3.43;1.47;;;7.70;97.30;;;;;;5052785;28;20451;-76
2022/02/17 08:35:10;;;;;;;7.10;1.60;;;7.80;97.30;;;;;;5052515;28;20539;-77
2022/02/17 08:37:37;;;;;;;3.30;1.20;;;7.80;97.30;;;;;;5070674;28;20220;-77
2022/02/17 08:40:04;;;;;;;5.20;2.63;;;7.90;97.30;;;;;;5052882;28;20780;-77
2022/02/17 08:42:30;;;;;;;2.70;1.40;;;8.00;97.30;;;;;;5053158;28;20441;-78
2022/02/17 08:44:55;;;;;;;3.83;1.37;;;8.00;97.30;;;;;;5052470;28;20483;-77
2022/02/17 08:47:21;;;;;;;6.60;1.70;;;8.10;97.30;;;;;;5051972;28;20221;-77
2022/02/17 08:49:48;;;;;;;7.80;1.60;;;8.10;97.30;;;;;;5052721;28;20203;-77
2022/02/17 08:52:13;;;;;;;5.40;1.60;;;8.40;97.30;;;;;;5052428;28;20947;-76
2022/02/17 08:54:39;;;;;;;5.20;1.67;;;8.80;97.30;;;;;;5051895;28;20457;-77
2022/02/17 08:57:05;;;;;;;3.13;2.10;;;8.90;97.30;;;;;;5051873;28;20592;-77
2022/02/17 08:59:30;;;;;;;4.23;1.60;;;8.90;97.30;;;;;;5051943;28;20222;-77
2022/02/17 09:01:56;;;;;;;6.47;1.90;;;8.80;97.30;;;;;;5051372;28;20326;-77
2022/02/17 09:04:23;;;;;;;7.13;3.40;;;8.80;97.30;;;;;;5051782;28;20178;-77
2022/02/17 09:06:48;;;;;;;3.37;1.60;;;8.80;97.30;;;;;;5069938;28;20186;-77
2022/02/17 09:09:15;;;;;;;6.63;1.40;;;8.80;96.90;;;;;;5051820;28;20421;-77
2022/02/17 09:11:41;;;;;;;2.83;1.70;;;8.70;96.20;;;;;;5051783;28;20651;-76
2022/02/17 09:14:07;;;;;;;4.70;1.40;;;8.80;95.20;;;;;;5070007;28;20480;-76
2022/02/17 09:16:34;;;;;;;1.57;1.20;;;8.80;93.40;;;;;;5051828;28;20922;-75
2022/02/17 09:18:59;;;;;;;3.33;1.20;;;8.80;92.90;;;;;;5069833;28;20266;-76
2022/02/17 09:21:25;;;;;;;4.60;1.00;;;9.00;92.30;;;;;;5051881;28;20855;-76
2022/02/17 09:23:51;;;;;;;8.13;1.40;;;9.20;91.60;;;;;;5052015;28;20284;-77
2022/02/17 09:26:18;;;;;;;1.57;1.00;;;9.10;91.80;;;;;;5070273;28;20201;-78
2022/02/17 09:28:48;;;;;;;1.50;1.33;;;9.00;92.00;;;;;;5052287;28;20186;-76
2022/02/17 09:31:22;;;;;;;2.97;1.23;;;8.90;92.70;;;;;;5052383;28;20425;-77
2022/02/17 09:33:49;;;;;;;3.33;1.43;;;8.80;92.60;;;;;;5069489;28;20446;-77
2022/02/17 09:36:15;;;;;;;1.60;1.47;;;8.80;92.40;;;;;;5070297;28;20456;-76
2022/02/17 09:38:41;;;;;;;3.37;1.50;;;8.80;93.00;;;;;;5069746;28;20815;-76
2022/02/17 09:41:08;;;;;;;6.83;1.50;;;8.80;92.90;;;;;;5052084;28;20183;-76
2022/02/17 09:43:35;;;;;;;3.23;1.33;;;8.80;93.40;;;;;;5034186;28;20194;-77
2022/02/17 09:46:01;;;;;;;1.40;1.13;;;8.70;94.10;;;;;;5051359;28;20417;-77
2022/02/17 09:48:28;;;;;;;1.77;1.00;;;8.70;93.90;;;;;;5069815;28;20485;-77
2022/02/17 09:50:54;;;;;;;4.70;1.00;;;8.60;93.80;;;;;;5051762;28;20484;-76
2022/02/17 09:53:19;;;;;;;2.60;1.30;;;8.60;94.00;;;;;;5051105;28;20934;-76
2022/02/17 09:55:45;;;;;;;1.20;1.10;;;8.50;94.40;;;;;;5069928;28;20203;-77
2022/02/17 09:58:10;;;;;;;2.87;1.07;;;8.50;95.00;;;;;;5069477;28;20556;-77
2022/02/17 10:00:37;;;;;;;1.40;1.20;;;8.40;95.80;;;;;;5051601;28;20632;-77
2022/02/17 10:03:22;;;;;;;1.30;1.10;;;8.30;96.90;;;;;;5051208;28;20199;-78
2022/02/17 10:06:16;;;;;;;1.67;1.00;;;8.20;97.30;;;;;;5051631;28;20460;-76
2022/02/17 10:08:43;;;;;;;3.17;1.37;;;8.10;97.30;;;;;;5051234;28;20424;-77
2022/02/17 10:11:26;;;;;;;5.50;1.37;;;8.10;97.30;;;;;;5051454;28;20981;-77
2022/02/17 10:14:14;;;;;;;2.60;0.90;;;8.30;97.30;;;;;;5071485;28;20441;-77
2022/02/17 10:16:58;;;;;;;1.27;1.20;;;8.50;97.30;;;;;;5075434;28;20422;-76
2022/02/17 10:19:36;;;;;;;2.07;1.00;;;8.70;97.30;;;;;;5057163;28;20792;-76
2022/02/17 10:22:03;;;;;;;7.90;1.40;;;8.70;97.30;;;;;;5057066;28;20425;-79
2022/02/17 10:24:34;;;;;;;3.50;1.57;;;8.80;97.30;;;;;;5056902;28;20500;-78
2022/02/17 10:27:08;;;;;;;2.50;1.20;;;9.00;97.30;;;;;;5055349;28;20409;-78
2022/02/17 10:29:34;;;;;;;9.03;1.77;;;9.20;96.60;;;;;;5055579;28;20917;-78
2022/02/17 10:32:06;;;;;;;2.80;1.13;;;9.40;96.20;;;;;;5055152;28;20437;-78
2022/02/17 10:34:31;;;;;;;5.03;1.63;;;9.50;95.20;;;;;;5054655;28;20494;-78
2022/02/17 10:36:57;;;;;;;2.67;1.30;;;9.40;94.40;;;;;;5055152;28;20500;-78
2022/02/17 10:39:26;;;;;;;3.63;1.20;;;9.50;94.40;;;;;;5055075;28;20175;-77
2022/02/17 10:42:07;;;;;;;4.10;1.40;;;9.60;94.60;;;;;;5054941;28;20195;-79
2022/02/17 10:44:36;;;;;;;2.10;1.10;;;9.80;94.00;;;;;;5054748;28;20921;-78
2022/02/17 10:47:23;;;;;;;1.53;1.20;;;9.80;93.20;;;;;;5054576;28;20413;-77
2022/02/17 10:49:54;;;;;;;2.77;1.10;;;9.80;91.90;;;;;;5054970;28;20421;-78
2022/02/17 10:52:36;;;;;;;3.33;1.17;;;9.80;91.20;;;;;;5054946;28;20871;-77
2022/02/17 10:55:17;;;;;;;3.00;1.87;;;9.90;90.90;;;;;;5054322;28;20514;-76
2022/02/17 10:57:44;;;;;;;2.87;1.23;;;10.00;90.60;;;;;;5054121;28;20488;-76
2022/02/17 11:00:19;;;;;;;6.60;1.53;;;10.10;90.30;;;;;;5072757;28;20937;-77
2022/02/17 11:02:49;;;;;;;8.10;1.50;;;10.30;90.80;;;;;;5053941;28;20444;-78
2022/02/17 11:05:16;;;;;;;2.87;1.57;;;10.30;89.80;;;;;;5054462;28;20414;-78
2022/02/17 11:07:43;;;;;;;5.70;1.20;;;10.40;89.10;;;;;;5054952;28;20941;-77
2022/02/17 11:10:10;;;;;;;1.83;1.20;;;10.40;89.10;;;;;;5054428;28;20410;-77
2022/02/17 11:12:40;;;;;;;2.60;1.20;;;10.50;88.80;;;;;;5072701;28;20528;-78
2022/02/17 11:15:07;;;;;;;6.47;1.53;;;10.70;89.40;;;;;;5053901;28;20985;-78
2022/02/17 11:17:36;;;;;;;8.33;1.77;;;10.70;90.00;;;;;;5054846;28;20406;-78
2022/02/17 11:20:17;;;;;;;3.03;1.40;;;10.70;88.80;;;;;;5054281;28;20413;-76
2022/02/17 11:22:43;;;;;;;3.10;1.20;;;10.70;88.60;;;;;;5071634;28;20464;-78
2022/02/17 11:25:11;;;;;;;5.80;1.50;;;10.80;88.50;;;;;;5072219;28;20920;-78
2022/02/17 11:27:57;;;;;;;6.83;1.67;;;10.90;87.70;;;;;;5054440;28;20989;-79
2022/02/17 11:30:27;;;;;;;8.03;1.40;;;10.80;86.20;;;;;;5053163;28;21229;-77
2022/02/17 11:33:30;;;;;;;7.30;1.47;;;10.60;86.70;;;;;;5071560;28;20457;-75
2022/02/17 11:36:21;;;;;;;2.60;1.53;;;10.30;86.30;;;;;;5072592;28;20589;-76
2022/02/17 11:38:57;;;;;;;27.77;5.23;;;10.20;87.30;;;;;;5054274;28;20933;-76
2022/02/17 11:41:31;;;;;;;2.97;1.60;;;10.30;88.50;;;;;;5054986;28;20428;-76
2022/02/17 11:44:21;;;;;;;2.80;1.40;;;10.40;88.90;;;;;;5054564;28;20408;-77
2022/02/17 11:46:50;;;;;;;5.43;1.20;;;10.40;88.70;;;;;;5054127;28;20418;-78
2022/02/17 11:49:31;;;;;;;8.13;1.43;;;10.40;88.40;;;;;;5053976;28;20417;-76
2022/02/17 11:52:14;;;;;;;4.10;1.50;;;10.50;88.60;;;;;;5054368;28;20481;-77
2022/02/17 11:54:40;;;;;;;10.43;2.10;;;10.40;88.60;;;;;;5054114;28;20876;-77
2022/02/17 11:57:35;;;;;;;6.83;1.57;;;10.50;89.20;;;;;;5054014;28;20778;-78
2022/02/17 12:00:16;;;;;;;4.20;1.40;;;10.60;89.60;;;;;;5072008;28;20406;-76
2022/02/17 12:02:43;;;;;;;6.53;1.60;;;10.70;89.60;;;;;;5071961;28;21007;-76
2022/02/17 12:05:16;;;;;;;4.57;2.00;;;10.80;89.90;;;;;;5072104;28;20922;-76
2022/02/17 12:07:42;;;;;;;2.20;1.37;;;10.80;89.40;;;;;;5071439;28;20488;-77
2022/02/17 12:10:33;;;;;;;2.80;1.40;;;10.80;88.70;;;;;;5070988;28;20410;-76
2022/02/17 12:13:00;;;;;;;3.10;1.37;;;10.90;88.20;;;;;;5070979;28;20437;-76
2022/02/17 12:15:26;;;;;;;3.73;1.00;;;11.00;87.20;;;;;;5053158;28;20548;-76
2022/02/17 12:17:55;;;;;;;2.53;1.20;;;11.10;86.30;;;;;;5071523;28;20983;-76
2022/02/17 12:20:23;;;;;;;6.90;1.40;;;11.10;85.40;;;;;;5053464;28;20404;-76
2022/02/17 12:23:07;;;;;;;6.73;1.70;;;11.10;85.50;;;;;;5053207;28;20438;-76
2022/02/17 12:25:35;;;;;;;3.77;1.40;;;11.30;86.00;;;;;;5032948;28;20826;-76
2022/02/17 12:28:09;;;;;;;4.93;2.47;;;11.50;86.00;;;;;;5033058;28;20505;-76
2022/02/17 12:30:46;;;;;;;3.30;1.40;;;11.40;86.20;;;;;;5050895;28;20398;-77
2022/02/17 12:33:20;;;;;;;2.40;1.43;;;11.20;86.20;;;;;;5032898;28;20864;-76
2022/02/17 12:35:57;;;;;;;10.17;1.60;;;11.40;87.00;;;;;;5031921;28;20507;-77
2022/02/17 12:38:28;;;;;;;3.63;1.40;;;11.40;85.50;;;;;;5033351;28;20479;-76
2022/02/17 12:40:54;;;;;;;6.10;1.60;;;11.40;85.10;;;;;;5033123;28;20910;-76
2022/02/17 12:43:26;;;;;;;1.90;1.73;;;11.50;85.00;;;;;;5052218;28;20518;-76
2022/02/17 12:45:54;;;;;;;4.20;1.67;;;11.50;84.80;;;;;;5032844;28;20183;-77
2022/02/17 12:48:20;;;;;;;3.03;1.20;;;11.50;85.20;;;;;;5032937;28;20414;-76
2022/02/17 12:50:46;;;;;;;5.53;1.30;;;11.60;84.60;;;;;;5032790;28;20425;-77
2022/02/17 12:53:12;;;;;;;2.97;1.10;;;11.40;84.70;;;;;;5033098;28;20438;-77
2022/02/17 12:55:48;;;;;;;3.70;0.90;;;11.20;84.90;;;;;;5033412;28;20281;-78